createdAt,value
2023-03-19T00:00:47.876Z,11.70
2023-03-19T00:01:50.715Z,11.52
2023-03-19T00:02:53.349Z,11.60
2023-03-19T00:03:56.400Z,11.63
2023-03-19T00:04:59.036Z,12.13
2023-03-19T00:06:02.286Z,8.65
2023-03-19T00:07:04.802Z,10.38
2023-03-19T00:08:07.559Z,9.25
2023-03-19T00:09:10.561Z,10.02
2023-03-19T00:10:13.441Z,9.57
2023-03-19T00:11:16.340Z,10.82
2023-03-19T00:12:18.842Z,11.02
2023-03-19T00:13:21.485Z,11.20
2023-03-19T00:14:24.249Z,8.73
2023-03-19T00:15:26.650Z,7.45
2023-03-19T00:16:29.214Z,8.20
2023-03-19T00:17:31.696Z,8.45
2023-03-19T00:18:34.333Z,7.38
2023-03-19T00:19:36.976Z,6.95
2023-03-19T00:20:39.849Z,9.50
2023-03-19T00:21:42.489Z,8.30
2023-03-19T00:22:44.773Z,10.15
2023-03-19T00:23:47.434Z,10.63
2023-03-19T00:24:49.936Z,6.30
2023-03-19T00:25:54.732Z,10.43
2023-03-19T00:26:57.289Z,7.63
2023-03-19T00:28:00.855Z,10.07
2023-03-19T00:29:04.846Z,7.30
2023-03-19T00:30:08.185Z,7.90
2023-03-19T00:31:15.778Z,8.32
2023-03-19T00:32:18.272Z,11.18
2023-03-19T00:33:21.380Z,8.55
2023-03-19T00:34:24.153Z,6.72
2023-03-19T00:35:27.143Z,7.97
2023-03-19T00:36:30.410Z,8.38
2023-03-19T00:37:33.874Z,6.80
2023-03-19T00:38:36.379Z,6.97
2023-03-19T00:39:38.930Z,8.52
2023-03-19T00:40:41.423Z,8.20
2023-03-19T00:41:50.559Z,7.25
2023-03-19T00:42:53.187Z,6.50
2023-03-19T00:43:57.659Z,7.38
2023-03-19T00:45:00.403Z,7.63
2023-03-19T00:46:03.418Z,7.30
2023-03-19T00:47:06.995Z,7.20
2023-03-19T00:48:09.631Z,5.85
2023-03-19T00:49:12.274Z,7.78
2023-03-19T00:50:14.921Z,7.03
2023-03-19T00:51:17.910Z,6.43
2023-03-19T00:52:20.674Z,7.07
2023-03-19T00:53:23.195Z,6.15
2023-03-19T00:54:25.713Z,9.88
2023-03-19T00:55:28.243Z,9.25
2023-03-19T00:56:30.758Z,6.72
2023-03-19T00:57:33.514Z,5.72
2023-03-19T00:58:36.154Z,6.78
2023-03-19T00:59:38.563Z,6.88
2023-03-19T01:00:41.097Z,7.57
2023-03-19T01:01:45.207Z,8.88
2023-03-19T01:02:47.556Z,7.07
2023-03-19T01:03:50.434Z,7.95
2023-03-19T01:04:52.983Z,8.68
2023-03-19T01:05:55.613Z,6.00
2023-03-19T01:08:02.810Z,6.40
2023-03-19T01:09:06.520Z,7.22
2023-03-19T01:10:09.887Z,7.70
2023-03-19T01:11:15.162Z,8.68
2023-03-19T01:12:19.486Z,9.02
2023-03-19T01:13:22.006Z,6.85
2023-03-19T01:14:25.019Z,8.32
2023-03-19T01:15:27.528Z,6.57
2023-03-19T01:16:30.164Z,6.57
2023-03-19T01:17:32.919Z,6.70
2023-03-19T01:18:35.920Z,6.88
2023-03-19T01:19:38.321Z,13.27
2023-03-19T01:20:42.523Z,8.90
2023-03-19T01:21:46.619Z,6.88
2023-03-19T01:22:53.096Z,6.65
2023-03-19T01:23:55.966Z,6.65
2023-03-19T01:25:00.083Z,6.35
2023-03-19T01:26:03.171Z,8.02
2023-03-19T01:27:06.052Z,6.93
2023-03-19T01:28:10.254Z,4.95
2023-03-19T01:29:14.818Z,6.82
2023-03-19T01:30:17.931Z,5.65
2023-03-19T01:31:39.052Z,7.47
2023-03-19T01:33:18.172Z,5.95
2023-03-19T01:34:34.511Z,7.85
2023-03-19T01:35:47.727Z,6.78
2023-03-19T01:36:50.695Z,6.70
2023-03-19T01:37:58.386Z,7.18
2023-03-19T01:39:01.752Z,8.25
2023-03-19T01:40:06.185Z,5.75
2023-03-19T01:41:08.713Z,7.10
2023-03-19T01:42:12.537Z,5.30
2023-03-19T01:43:33.662Z,8.20
2023-03-19T01:44:46.858Z,5.80
2023-03-19T01:46:08.164Z,6.82
2023-03-19T01:47:33.181Z,6.97
2023-03-19T01:48:59.856Z,10.70
2023-03-19T01:50:03.911Z,5.85
2023-03-19T01:51:10.269Z,6.18
2023-03-19T01:52:34.381Z,5.03
2023-03-19T01:53:56.397Z,6.25
2023-03-19T01:55:12.668Z,7.28
2023-03-19T01:56:52.385Z,6.65
2023-03-19T01:58:26.945Z,5.07
2023-03-19T01:59:56.467Z,7.80
2023-03-19T02:01:19.086Z,5.85
2023-03-19T02:02:35.495Z,6.95
2023-03-19T02:04:07.111Z,6.72
2023-03-19T02:05:14.838Z,6.47
2023-03-19T02:06:21.068Z,8.13
2023-03-19T02:07:23.711Z,7.05
2023-03-19T02:08:27.314Z,7.07
2023-03-19T02:09:30.792Z,8.27
2023-03-19T02:10:34.255Z,6.72
2023-03-19T02:11:38.237Z,8.32
2023-03-19T02:12:41.117Z,7.20
2023-03-19T02:13:44.112Z,6.90
2023-03-19T02:14:46.516Z,9.00
2023-03-19T02:15:51.236Z,8.88
2023-03-19T02:16:55.046Z,7.15
2023-03-19T02:17:58.760Z,6.93
2023-03-19T02:19:02.003Z,8.63
2023-03-19T02:20:18.345Z,6.82
2023-03-19T02:21:22.170Z,8.23
2023-03-19T02:22:29.121Z,6.13
2023-03-19T02:23:44.137Z,7.10
2023-03-19T02:24:56.965Z,7.80
2023-03-19T02:26:12.326Z,7.35
2023-03-19T02:27:14.965Z,6.35
2023-03-19T02:28:23.740Z,7.60
2023-03-19T02:29:28.641Z,6.28
2023-03-19T02:30:34.878Z,7.53
2023-03-19T02:31:42.619Z,7.70
2023-03-19T02:32:45.233Z,6.97
2023-03-19T02:33:57.808Z,8.98
2023-03-19T02:35:00.685Z,7.30
2023-03-19T02:36:06.741Z,6.82
2023-03-19T02:37:21.329Z,8.18
2023-03-19T02:38:26.133Z,6.82
2023-03-19T02:39:46.056Z,5.93
2023-03-19T02:41:07.420Z,6.88
2023-03-19T02:42:13.556Z,7.22
2023-03-19T02:43:16.668Z,7.88
2023-03-19T02:44:20.258Z,6.93
2023-03-19T02:45:29.976Z,9.65
2023-03-19T02:46:32.897Z,8.00
2023-03-19T02:47:35.512Z,8.73
2023-03-19T02:48:38.021Z,8.23
2023-03-19T02:49:40.656Z,7.32
2023-03-19T02:50:43.300Z,6.55
2023-03-19T02:51:45.822Z,8.90
2023-03-19T02:52:48.365Z,8.98
2023-03-19T02:53:50.737Z,6.30
2023-03-19T02:54:53.865Z,7.88
2023-03-19T02:55:56.261Z,7.22
2023-03-19T02:56:59.035Z,9.10
2023-03-19T02:58:01.436Z,9.38
2023-03-19T02:59:04.788Z,7.63
2023-03-19T03:00:08.023Z,8.15
2023-03-19T03:01:10.563Z,7.72
2023-03-19T03:02:13.500Z,8.88
2023-03-19T03:03:16.428Z,8.13
2023-03-19T03:04:19.068Z,9.38
2023-03-19T03:05:21.719Z,8.32
2023-03-19T03:06:24.241Z,7.95
2023-03-19T03:07:28.074Z,7.53
2023-03-19T03:08:30.597Z,8.88
2023-03-19T03:09:33.359Z,8.48
2023-03-19T03:10:35.813Z,9.57
2023-03-19T03:11:41.757Z,13.70
2023-03-19T03:12:44.759Z,8.50
2023-03-19T03:13:47.288Z,8.68
2023-03-19T03:14:50.055Z,7.65
2023-03-19T03:15:54.005Z,8.98
2023-03-19T03:16:57.485Z,9.35
2023-03-19T03:18:00.002Z,9.75
2023-03-19T03:19:02.640Z,10.27
2023-03-19T03:20:07.091Z,10.52
2023-03-19T03:21:10.333Z,12.52
2023-03-19T03:22:13.212Z,9.23
2023-03-19T03:23:15.729Z,9.25
2023-03-19T03:24:18.246Z,8.23
2023-03-19T03:25:21.258Z,9.88
2023-03-19T03:26:23.779Z,11.93
2023-03-19T03:27:27.150Z,12.05
2023-03-19T03:28:29.768Z,8.70
2023-03-19T03:29:33.011Z,9.20
2023-03-19T03:30:35.792Z,9.38
2023-03-19T03:31:38.583Z,9.27
2023-03-19T03:32:41.585Z,10.05
2023-03-19T03:33:44.184Z,8.32
2023-03-19T03:34:46.696Z,11.07
2023-03-19T03:35:49.227Z,10.23
2023-03-19T03:36:52.214Z,10.40
2023-03-19T03:37:55.337Z,10.88
2023-03-19T03:38:58.720Z,11.27
2023-03-19T03:40:01.217Z,12.82
2023-03-19T03:41:03.742Z,11.70
2023-03-19T03:42:07.462Z,11.52
2023-03-19T03:43:11.185Z,13.32
2023-03-19T03:44:13.725Z,13.00
2023-03-19T03:45:17.304Z,9.90
2023-03-19T03:46:20.906Z,12.45
2023-03-19T03:47:25.713Z,12.20
2023-03-19T03:48:28.716Z,11.18
2023-03-19T03:49:31.712Z,11.60
2023-03-19T03:50:34.299Z,15.00
2023-03-19T03:51:42.274Z,14.30
2023-03-19T03:52:44.924Z,15.18
2023-03-19T03:53:47.427Z,11.93
2023-03-19T03:54:50.434Z,11.18
2023-03-19T03:55:53.071Z,11.90
2023-03-19T03:56:58.471Z,12.70
2023-03-19T03:58:01.231Z,12.40
2023-03-19T03:59:04.112Z,10.82
2023-03-19T04:00:07.114Z,12.18
2023-03-19T04:01:16.961Z,14.07
2023-03-19T04:02:22.637Z,11.77
2023-03-19T04:03:25.962Z,12.85
2023-03-19T04:04:28.834Z,11.45
2023-03-19T04:05:31.479Z,13.25
2023-03-19T04:06:34.995Z,11.98
2023-03-19T04:07:48.949Z,12.02
2023-03-19T04:08:52.009Z,13.30
2023-03-19T04:09:57.520Z,15.23
2023-03-19T04:11:00.039Z,16.30
2023-03-19T04:12:03.040Z,14.05
2023-03-19T04:13:05.571Z,16.58
2023-03-19T04:14:08.807Z,11.75
2023-03-19T04:15:13.731Z,15.40
2023-03-19T04:16:19.010Z,14.60
2023-03-19T04:17:21.645Z,13.10
2023-03-19T04:18:24.176Z,11.15
2023-03-19T04:19:27.404Z,15.00
2023-03-19T04:20:30.408Z,12.63
2023-03-19T04:21:32.927Z,13.02
2023-03-19T04:22:35.457Z,14.73
2023-03-19T04:23:38.812Z,11.50
2023-03-19T04:24:41.570Z,12.88
2023-03-19T04:25:44.093Z,13.00
2023-03-19T04:26:48.648Z,13.60
2023-03-19T04:27:52.851Z,11.88
2023-03-19T04:28:55.371Z,11.38
2023-03-19T04:29:57.795Z,25.67
2023-03-19T04:31:04.906Z,14.55
2023-03-19T04:32:09.416Z,11.32
2023-03-19T04:33:13.213Z,14.55
2023-03-19T04:34:15.778Z,13.23
2023-03-19T04:35:18.430Z,15.00
2023-03-19T04:36:21.177Z,11.75
2023-03-19T04:37:23.951Z,11.10
2023-03-19T04:38:27.900Z,12.88
2023-03-19T04:39:30.661Z,11.88
2023-03-19T04:40:33.579Z,13.18
2023-03-19T04:41:36.787Z,13.27
2023-03-19T04:42:55.035Z,12.05
2023-03-19T04:44:11.113Z,12.90
2023-03-19T04:45:39.587Z,14.52
2023-03-19T04:46:42.183Z,13.02
2023-03-19T04:47:44.714Z,12.20
2023-03-19T04:48:47.230Z,12.50
2023-03-19T04:49:49.749Z,11.30
2023-03-19T04:50:57.192Z,13.63
2023-03-19T04:51:59.946Z,12.25
2023-03-19T04:53:02.826Z,12.93
2023-03-19T04:54:05.957Z,11.15
2023-03-19T04:55:08.836Z,14.32
2023-03-19T04:56:23.106Z,13.32
2023-03-19T04:57:25.752Z,13.95
2023-03-19T04:58:30.548Z,12.55
2023-03-19T04:59:37.148Z,13.60
2023-03-19T05:00:40.395Z,14.93
2023-03-19T05:01:43.632Z,13.68
2023-03-19T05:02:47.952Z,13.63
2023-03-19T05:03:51.003Z,14.88
2023-03-19T05:04:54.075Z,12.32
2023-03-19T05:05:56.474Z,15.65
2023-03-19T05:06:59.530Z,16.08
2023-03-19T05:08:02.115Z,14.13
2023-03-19T05:09:06.675Z,11.98
2023-03-19T05:10:10.521Z,13.25
2023-03-19T05:11:13.277Z,14.20
2023-03-19T05:12:32.001Z,13.48
2023-03-19T05:13:34.894Z,15.50
2023-03-19T05:14:37.401Z,18.00
2023-03-19T05:15:55.707Z,17.17
2023-03-19T05:16:58.646Z,15.88
2023-03-19T05:18:04.167Z,14.70
2023-03-19T05:19:12.443Z,17.48
2023-03-19T05:20:15.705Z,15.10
2023-03-19T05:21:27.686Z,18.83
2023-03-19T05:22:30.571Z,18.00
2023-03-19T05:23:33.086Z,15.20
2023-03-19T05:24:41.008Z,17.65
2023-03-19T05:25:44.281Z,15.23
2023-03-19T05:26:50.250Z,15.50
2023-03-19T05:28:25.056Z,19.05
2023-03-19T05:29:28.055Z,15.63
2023-03-19T05:30:53.845Z,16.05
2023-03-19T05:32:03.306Z,15.45
2023-03-19T05:33:07.081Z,15.30
2023-03-19T05:34:13.078Z,18.85
2023-03-19T05:35:15.930Z,15.43
2023-03-19T05:36:19.176Z,15.73
2023-03-19T05:37:32.015Z,18.60
2023-03-19T05:38:35.377Z,16.17
2023-03-19T05:39:43.659Z,20.60
2023-03-19T05:40:47.020Z,18.92
2023-03-19T05:41:59.256Z,18.55
2023-03-19T05:43:04.436Z,19.80
2023-03-19T05:44:07.057Z,20.08
2023-03-19T05:45:29.987Z,16.52
2023-03-19T05:46:36.523Z,21.77
2023-03-19T05:47:39.590Z,16.25
2023-03-19T05:48:42.480Z,15.75
2023-03-19T05:49:45.352Z,19.00
2023-03-19T05:50:48.588Z,18.20
2023-03-19T05:51:55.073Z,20.63
2023-03-19T05:52:58.307Z,16.30
2023-03-19T05:54:01.186Z,18.15
2023-03-19T05:55:09.738Z,17.02
2023-03-19T05:56:16.068Z,17.77
2023-03-19T05:58:43.311Z,19.48
2023-03-19T05:59:51.237Z,16.98
2023-03-19T06:01:09.106Z,19.40
2023-03-19T06:02:11.870Z,19.00
2023-03-19T06:03:15.591Z,18.88
2023-03-19T06:04:24.372Z,16.05
2023-03-19T06:05:26.998Z,19.42
2023-03-19T06:06:33.486Z,17.85
2023-03-19T06:07:36.471Z,18.73
2023-03-19T06:08:43.190Z,21.48
2023-03-19T06:10:04.553Z,16.88
2023-03-19T06:11:07.432Z,17.13
2023-03-19T06:12:10.555Z,20.63
2023-03-19T06:13:18.956Z,20.92
2023-03-19T06:14:29.403Z,24.42
2023-03-19T06:15:58.225Z,16.77
2023-03-19T06:17:12.841Z,19.15
2023-03-19T06:18:16.450Z,19.27
2023-03-19T06:19:20.048Z,16.73
2023-03-19T06:20:22.565Z,17.67
2023-03-19T06:21:29.799Z,18.15
2023-03-19T06:22:35.282Z,17.17
2023-03-19T06:23:38.056Z,18.33
2023-03-19T06:24:42.250Z,16.60
2023-03-19T06:25:45.244Z,16.50
2023-03-19T06:26:48.739Z,17.95
2023-03-19T06:27:51.603Z,17.60
2023-03-19T06:29:01.684Z,18.33
2023-03-19T06:30:05.288Z,15.20
2023-03-19T06:31:09.035Z,17.80
2023-03-19T06:32:29.785Z,19.50
2023-03-19T06:33:37.117Z,14.55
2023-03-19T06:34:39.993Z,18.90
2023-03-19T06:35:42.650Z,16.85
2023-03-19T06:36:45.256Z,19.15
2023-03-19T06:37:49.219Z,16.95
2023-03-19T06:38:51.994Z,17.77
2023-03-19T06:39:57.263Z,18.50
2023-03-19T06:40:59.657Z,19.63
2023-03-19T06:42:02.508Z,18.70
2023-03-19T06:43:04.935Z,16.92
2023-03-19T06:44:07.586Z,18.10
2023-03-19T06:45:10.464Z,17.45
2023-03-19T06:46:13.182Z,16.65
2023-03-19T06:47:15.759Z,15.90
2023-03-19T06:48:18.980Z,19.33
2023-03-19T06:49:22.004Z,16.25
2023-03-19T06:50:24.504Z,18.20
2023-03-19T06:51:28.000Z,20.45
2023-03-19T06:52:30.625Z,17.02
2023-03-19T06:53:33.270Z,21.90
2023-03-19T06:54:38.228Z,16.90
2023-03-19T06:55:41.188Z,17.92
2023-03-19T06:56:43.589Z,16.95
2023-03-19T06:57:49.588Z,18.20
2023-03-19T06:58:52.232Z,20.05
2023-03-19T06:59:55.113Z,19.13
2023-03-19T07:00:58.237Z,18.83
2023-03-19T07:02:00.764Z,20.40
2023-03-19T07:03:03.401Z,22.42
2023-03-19T07:04:06.331Z,19.20
2023-03-19T07:05:09.037Z,17.10
2023-03-19T07:06:11.915Z,16.10
2023-03-19T07:07:14.436Z,16.02
2023-03-19T07:08:16.955Z,16.35
2023-03-19T07:09:19.472Z,17.10
2023-03-19T07:10:22.594Z,16.77
2023-03-19T07:11:25.120Z,17.98
2023-03-19T07:12:28.057Z,22.02
2023-03-19T07:13:30.757Z,14.10
2023-03-19T07:14:33.280Z,17.50
2023-03-19T07:15:36.763Z,15.93
2023-03-19T07:16:39.662Z,14.95
2023-03-19T07:17:42.164Z,15.25
2023-03-19T07:18:44.561Z,19.38
2023-03-19T07:19:47.084Z,14.48
2023-03-19T07:20:49.618Z,16.50
2023-03-19T07:21:52.242Z,15.68
2023-03-19T07:22:55.007Z,16.63
2023-03-19T07:23:57.537Z,15.93
2023-03-19T07:25:00.061Z,16.40
2023-03-19T07:26:03.049Z,17.30
2023-03-19T07:27:05.817Z,16.00
2023-03-19T07:28:08.217Z,19.80
2023-03-19T07:29:11.330Z,16.17
2023-03-19T07:30:14.813Z,17.15
2023-03-19T07:31:17.845Z,13.10
2023-03-19T07:32:20.714Z,12.75
2023-03-19T07:33:23.212Z,14.20
2023-03-19T07:34:26.469Z,16.83
2023-03-19T07:35:29.058Z,11.45
2023-03-19T07:36:31.740Z,16.98
2023-03-19T07:37:34.410Z,12.70
2023-03-19T07:38:36.902Z,13.32
2023-03-19T07:39:39.539Z,13.00
2023-03-19T07:40:51.355Z,17.52
2023-03-19T07:42:01.854Z,12.38
2023-03-19T07:43:04.989Z,17.10
2023-03-19T07:44:07.495Z,12.10
2023-03-19T07:45:10.386Z,14.57
2023-03-19T07:46:12.985Z,14.95
2023-03-19T07:47:27.989Z,12.80
2023-03-19T07:48:31.259Z,14.13
2023-03-19T07:49:33.778Z,14.30
2023-03-19T07:50:36.436Z,15.40
2023-03-19T07:51:39.302Z,17.83
2023-03-19T07:52:41.832Z,14.02
2023-03-19T07:53:44.474Z,17.63
2023-03-19T07:54:47.229Z,14.07
2023-03-19T07:55:49.742Z,12.70
2023-03-19T07:56:52.268Z,15.48
2023-03-19T07:57:54.810Z,12.25
2023-03-19T07:58:57.306Z,14.57
2023-03-19T07:59:59.862Z,12.13
2023-03-19T08:01:02.348Z,12.23
2023-03-19T08:02:04.919Z,13.07
2023-03-19T08:03:07.509Z,13.10
2023-03-19T08:04:10.227Z,12.80
2023-03-19T08:05:12.808Z,11.73
2023-03-19T08:06:15.432Z,11.05
2023-03-19T08:07:18.084Z,13.82
2023-03-19T08:08:20.722Z,11.38
2023-03-19T08:09:24.442Z,9.00
2023-03-19T08:10:27.914Z,12.10
2023-03-19T08:11:30.569Z,12.77
2023-03-19T08:12:35.076Z,11.00
2023-03-19T08:13:38.004Z,14.85
2023-03-19T08:14:40.693Z,10.13
2023-03-19T08:15:43.918Z,8.38
2023-03-19T08:16:48.591Z,14.43
2023-03-19T08:17:58.177Z,12.45
2023-03-19T08:19:00.694Z,10.70
2023-03-19T08:20:04.280Z,12.38
2023-03-19T08:21:07.041Z,10.65
2023-03-19T08:22:10.170Z,10.70
2023-03-19T08:23:13.521Z,11.85
2023-03-19T08:24:16.159Z,10.25
2023-03-19T08:25:18.949Z,11.70
2023-03-19T08:26:21.680Z,13.10
2023-03-19T08:27:24.092Z,12.02
2023-03-19T08:28:26.722Z,11.65
2023-03-19T08:29:29.609Z,11.43
2023-03-19T08:30:32.594Z,11.40
2023-03-19T08:31:35.727Z,10.82
2023-03-19T08:32:38.513Z,12.90
2023-03-19T08:33:41.738Z,12.10
2023-03-19T08:34:44.257Z,11.93
2023-03-19T08:35:46.946Z,12.52
2023-03-19T08:36:49.670Z,9.93
2023-03-19T08:37:52.168Z,8.57
2023-03-19T08:38:55.051Z,9.10
2023-03-19T08:39:57.691Z,9.60
2023-03-19T08:41:02.513Z,9.10
2023-03-19T08:42:05.380Z,11.77
2023-03-19T08:43:07.898Z,7.35
2023-03-19T08:44:10.667Z,12.35
2023-03-19T08:45:15.325Z,9.88
2023-03-19T08:46:18.419Z,10.50
2023-03-19T08:47:24.473Z,11.77
2023-03-19T08:48:27.817Z,12.75
2023-03-19T08:49:30.353Z,12.02
2023-03-19T08:50:33.101Z,9.93
2023-03-19T08:51:36.456Z,14.23
2023-03-19T08:52:39.282Z,11.80
2023-03-19T08:53:41.858Z,9.02
2023-03-19T08:54:44.384Z,13.02
2023-03-19T08:55:52.269Z,10.55
2023-03-19T08:56:54.826Z,10.77
2023-03-19T08:57:57.342Z,9.52
2023-03-19T08:58:59.861Z,8.98
2023-03-19T09:00:04.543Z,8.88
2023-03-19T09:01:10.807Z,9.10
2023-03-19T09:02:13.792Z,10.23
2023-03-19T09:03:17.984Z,12.40
2023-03-19T09:04:22.123Z,9.02
2023-03-19T09:05:24.591Z,14.63
2023-03-19T09:06:27.107Z,10.32
2023-03-19T09:07:29.757Z,9.13
2023-03-19T09:08:34.237Z,10.55
2023-03-19T09:09:36.839Z,9.52
2023-03-19T09:10:39.835Z,8.95
2023-03-19T09:11:42.369Z,10.45
2023-03-19T09:12:45.787Z,12.82
2023-03-19T09:13:49.934Z,13.23
2023-03-19T09:14:52.324Z,9.95
2023-03-19T09:15:54.896Z,10.73
2023-03-19T09:16:57.355Z,11.82
2023-03-19T09:17:59.994Z,13.05
2023-03-19T09:19:02.648Z,9.23
2023-03-19T09:20:07.445Z,10.65
2023-03-19T09:21:10.083Z,9.02
2023-03-19T09:22:12.625Z,11.15
2023-03-19T09:23:15.118Z,9.05
2023-03-19T09:24:18.996Z,11.32
2023-03-19T09:25:21.485Z,10.65
2023-03-19T09:26:23.894Z,9.73
2023-03-19T09:27:26.409Z,10.98
2023-03-19T09:28:28.974Z,11.15
2023-03-19T09:29:31.684Z,7.03
2023-03-19T09:30:34.692Z,12.98
2023-03-19T09:31:37.810Z,12.88
2023-03-19T09:32:40.938Z,10.15
2023-03-19T09:33:43.451Z,12.13
2023-03-19T09:34:47.182Z,11.02
2023-03-19T09:35:52.806Z,12.30
2023-03-19T09:36:55.569Z,15.32
2023-03-19T09:37:59.176Z,9.75
2023-03-19T09:39:01.692Z,10.88
2023-03-19T09:40:05.416Z,9.13
2023-03-19T09:41:29.660Z,11.95
2023-03-19T09:43:00.978Z,9.02
2023-03-19T09:44:12.738Z,8.43
2023-03-19T09:45:18.133Z,10.88
2023-03-19T09:46:26.680Z,10.43
2023-03-19T09:47:32.896Z,12.25
2023-03-19T09:48:49.585Z,9.13
2023-03-19T09:49:54.857Z,9.05
2023-03-19T09:50:59.299Z,11.50
2023-03-19T09:52:36.017Z,9.77
2023-03-19T09:53:58.823Z,8.15
2023-03-19T09:55:12.748Z,8.43
2023-03-19T09:56:19.585Z,9.25
2023-03-19T09:57:22.227Z,8.02
2023-03-19T09:58:34.601Z,8.88
2023-03-19T09:59:38.546Z,9.18
2023-03-19T10:00:42.743Z,10.20
2023-03-19T10:01:53.215Z,9.48
2023-03-19T10:03:40.625Z,10.00
2023-03-19T10:05:13.230Z,7.90
2023-03-19T10:06:35.596Z,14.27
2023-03-19T10:07:46.108Z,7.82
2023-03-19T10:09:01.246Z,9.85
2023-03-19T10:10:22.366Z,10.32
2023-03-19T10:11:30.882Z,11.00
2023-03-19T10:13:20.916Z,10.75
2023-03-19T10:14:53.796Z,14.20
2023-03-19T10:15:58.880Z,9.00
2023-03-19T10:17:04.597Z,9.90
2023-03-19T10:18:17.558Z,12.00
2023-03-19T10:19:24.767Z,8.10
2023-03-19T10:20:45.526Z,10.38
2023-03-19T10:22:00.879Z,10.32
2023-03-19T10:23:24.041Z,13.30
2023-03-19T10:24:38.340Z,8.07
2023-03-19T10:25:43.126Z,11.00
2023-03-19T10:26:46.378Z,10.70
2023-03-19T10:27:56.702Z,13.43
2023-03-19T10:29:04.967Z,13.15
2023-03-19T10:30:16.729Z,12.25
2023-03-19T10:31:43.780Z,12.35
2023-03-19T10:33:03.545Z,10.10
2023-03-19T10:34:20.213Z,11.48
2023-03-19T10:35:33.490Z,12.10
2023-03-19T10:36:37.016Z,17.90
2023-03-19T10:37:39.538Z,13.95
2023-03-19T10:38:43.402Z,10.88
2023-03-19T10:39:48.053Z,13.20
2023-03-19T10:41:05.715Z,10.50
2023-03-19T10:42:20.224Z,13.93
2023-03-19T10:43:26.118Z,14.65
2023-03-19T10:44:32.220Z,13.68
2023-03-19T10:45:38.588Z,14.43
2023-03-19T10:46:41.728Z,15.73
2023-03-19T10:47:44.820Z,18.00
2023-03-19T10:48:48.300Z,15.52
2023-03-19T10:49:51.380Z,15.57
2023-03-19T10:50:58.862Z,15.85
2023-03-19T10:52:02.108Z,21.25
2023-03-19T10:53:06.906Z,17.40
2023-03-19T10:54:30.906Z,14.10
2023-03-19T10:55:33.784Z,15.00
2023-03-19T10:56:36.784Z,15.73
2023-03-19T10:57:43.305Z,15.30
2023-03-19T10:59:05.957Z,15.52
2023-03-19T11:00:24.923Z,13.77
2023-03-19T11:01:39.792Z,12.63
2023-03-19T11:02:48.545Z,12.40
2023-03-19T11:03:55.927Z,11.43
2023-03-19T11:05:23.136Z,12.48
2023-03-19T11:06:31.392Z,13.88
2023-03-19T11:07:35.961Z,13.45
2023-03-19T11:08:38.952Z,13.50
2023-03-19T11:09:47.951Z,17.85
2023-03-19T11:10:50.615Z,12.70
2023-03-19T11:12:08.710Z,12.15
2023-03-19T11:13:37.270Z,13.25
2023-03-19T11:14:44.593Z,12.68
2023-03-19T11:15:47.953Z,14.68
2023-03-19T11:17:04.913Z,17.38
2023-03-19T11:18:16.991Z,14.85
2023-03-19T11:19:28.321Z,15.88
2023-03-19T11:20:33.689Z,17.42
2023-03-19T11:21:37.760Z,13.45
2023-03-19T11:22:40.638Z,14.05
2023-03-19T11:23:43.161Z,13.80
2023-03-19T11:24:57.317Z,13.55
2023-03-19T11:26:01.939Z,12.88
2023-03-19T11:27:05.485Z,12.45
2023-03-19T11:28:18.537Z,12.05
2023-03-19T11:29:23.844Z,16.70
2023-03-19T11:30:33.565Z,14.40
2023-03-19T11:32:21.283Z,14.30
2023-03-19T11:33:54.900Z,11.88
2023-03-19T11:35:02.604Z,12.43
2023-03-19T11:36:20.039Z,13.15
2023-03-19T11:37:31.672Z,10.60
2023-03-19T11:39:01.289Z,11.70
2023-03-19T11:40:48.449Z,12.90
2023-03-19T11:42:28.171Z,11.05
2023-03-19T11:43:54.610Z,13.98
2023-03-19T11:45:16.334Z,12.43
2023-03-19T11:46:35.861Z,10.55
2023-03-19T11:47:50.254Z,10.05
2023-03-19T11:49:13.417Z,11.82
2023-03-19T11:50:27.578Z,10.93
2023-03-19T11:51:47.379Z,11.60
2023-03-19T11:53:18.356Z,10.15
2023-03-19T11:56:08.266Z,12.40
2023-03-19T11:57:56.763Z,11.02
2023-03-19T11:59:28.429Z,11.90
2023-03-19T12:00:57.344Z,13.48
2023-03-19T12:02:17.929Z,13.38
2023-03-19T12:03:28.619Z,14.55
2023-03-19T12:04:46.074Z,13.52
2023-03-19T12:05:57.707Z,11.75
2023-03-19T12:07:28.073Z,14.80
2023-03-19T12:08:34.193Z,11.90
2023-03-19T12:09:49.551Z,9.90
2023-03-19T12:11:16.074Z,10.77
2023-03-19T12:12:30.717Z,17.40
2023-03-19T12:13:57.477Z,13.25
2023-03-19T12:15:23.774Z,11.93
2023-03-19T12:16:52.444Z,10.35
2023-03-19T12:18:00.236Z,14.93
2023-03-19T12:19:23.517Z,11.75
2023-03-19T12:20:30.124Z,11.50
2023-03-19T12:21:52.198Z,11.82
2023-03-19T12:23:19.816Z,10.75
2023-03-19T12:24:52.692Z,10.63
2023-03-19T12:26:08.801Z,10.77
2023-03-19T12:27:29.162Z,9.48
2023-03-19T12:28:49.572Z,8.90
2023-03-19T12:30:13.456Z,8.68
2023-03-19T12:31:29.612Z,9.70
2023-03-19T12:32:46.658Z,7.40
2023-03-19T12:34:21.966Z,9.13
2023-03-19T12:35:35.406Z,8.23
2023-03-19T12:36:44.407Z,7.72
2023-03-19T12:37:50.649Z,9.40
2023-03-19T12:38:59.413Z,7.88
2023-03-19T12:40:23.648Z,8.23
2023-03-19T12:41:31.933Z,7.38
2023-03-19T12:42:39.262Z,10.95
2023-03-19T12:44:07.235Z,6.95
2023-03-19T12:45:37.090Z,7.88
2023-03-19T12:47:02.875Z,5.93
2023-03-19T12:48:16.342Z,7.22
2023-03-19T12:49:26.416Z,6.57
2023-03-19T12:50:32.241Z,6.03
2023-03-19T12:51:40.696Z,8.88
2023-03-19T12:52:47.417Z,7.53
2023-03-19T12:53:58.820Z,6.75
2023-03-19T12:56:02.781Z,13.55
2023-03-19T12:57:15.621Z,6.63
2023-03-19T12:58:26.194Z,6.80
2023-03-19T12:59:46.740Z,6.80
2023-03-19T13:01:00.027Z,6.55
2023-03-19T13:02:24.985Z,7.35
2023-03-19T13:04:03.506Z,6.25
2023-03-19T13:05:11.665Z,4.90
2023-03-19T13:06:27.273Z,5.70
2023-03-19T13:07:43.467Z,4.20
2023-03-19T13:08:53.552Z,5.07
2023-03-19T13:10:06.871Z,5.35
2023-03-19T13:11:16.114Z,4.13
2023-03-19T13:12:46.363Z,6.30
2023-03-19T13:14:02.563Z,5.88
2023-03-19T13:15:16.232Z,6.15
2023-03-19T13:16:40.387Z,6.38
2023-03-19T13:18:09.274Z,4.95
2023-03-19T13:19:23.674Z,5.88
2023-03-19T13:20:46.238Z,4.85
2023-03-19T13:21:52.356Z,3.92
2023-03-19T13:22:59.915Z,5.22
2023-03-19T13:24:12.636Z,5.63
2023-03-19T13:25:19.597Z,5.10
2023-03-19T13:26:22.477Z,5.72
2023-03-19T13:27:30.166Z,4.78
2023-03-19T13:28:35.710Z,5.63
2023-03-19T13:29:52.241Z,5.82
2023-03-19T13:31:03.806Z,5.65
2023-03-19T13:32:10.363Z,5.13
2023-03-19T13:33:23.004Z,6.07
2023-03-19T13:34:31.856Z,5.75
2023-03-19T13:35:44.229Z,4.40
2023-03-19T13:36:53.110Z,5.63
2023-03-19T13:38:23.571Z,5.35
2023-03-19T13:39:29.694Z,5.60
2023-03-19T13:40:52.016Z,6.45
2023-03-19T13:42:08.811Z,5.43
2023-03-19T13:43:28.840Z,8.63
2023-03-19T13:44:31.747Z,6.70
2023-03-19T13:45:38.445Z,9.00
2023-03-19T13:46:45.309Z,5.55
2023-03-19T13:47:51.536Z,5.18
2023-03-19T13:48:54.545Z,6.25
2023-03-19T13:50:11.026Z,5.72
2023-03-19T13:51:17.895Z,6.38
2023-03-19T13:52:20.358Z,8.88
2023-03-19T13:53:32.458Z,8.07
2023-03-19T13:54:39.054Z,4.68
2023-03-19T13:56:02.711Z,5.97
2023-03-19T13:57:18.757Z,6.05
2023-03-19T13:58:45.658Z,6.90
2023-03-19T13:59:50.588Z,7.68
2023-03-19T14:00:59.021Z,4.75
2023-03-19T14:02:22.273Z,5.28
2023-03-19T14:03:27.010Z,7.07
2023-03-19T14:04:31.884Z,5.18
2023-03-19T14:05:36.302Z,5.43
2023-03-19T14:06:48.309Z,6.18
2023-03-19T14:07:54.952Z,7.32
2023-03-19T14:08:57.554Z,8.68
2023-03-19T14:10:00.221Z,6.93
2023-03-19T14:11:05.878Z,8.88
2023-03-19T14:12:23.355Z,4.85
2023-03-19T14:13:34.532Z,7.68
2023-03-19T14:14:42.432Z,5.40
2023-03-19T14:15:50.717Z,5.40
2023-03-19T14:16:53.836Z,6.32
2023-03-19T14:18:06.210Z,5.30
2023-03-19T14:19:17.600Z,6.07
2023-03-19T14:20:24.669Z,6.60
2023-03-19T14:21:33.974Z,4.95
2023-03-19T14:22:41.233Z,7.38
2023-03-19T14:23:55.188Z,5.22
2023-03-19T14:25:12.683Z,7.53
2023-03-19T14:26:17.840Z,6.45
2023-03-19T14:27:33.097Z,6.80
2023-03-19T14:28:49.879Z,4.70
2023-03-19T14:29:55.434Z,5.47
2023-03-19T14:30:58.648Z,5.60
2023-03-19T14:32:08.033Z,4.75
2023-03-19T14:33:20.842Z,6.07
2023-03-19T14:34:43.644Z,5.30
2023-03-19T14:35:48.360Z,5.68
2023-03-19T14:37:18.327Z,5.35
2023-03-19T14:38:46.285Z,5.97
2023-03-19T14:40:02.844Z,6.90
2023-03-19T14:41:11.610Z,5.03
2023-03-19T14:42:26.488Z,5.30
2023-03-19T14:44:05.847Z,5.35
2023-03-19T14:45:29.292Z,4.85
2023-03-19T14:46:40.534Z,5.63
2023-03-19T14:48:02.013Z,4.88
2023-03-19T14:49:28.057Z,4.85
2023-03-19T14:50:54.215Z,5.53
2023-03-19T14:52:02.376Z,6.95
2023-03-19T14:53:14.922Z,5.85